createdAt,value
2018-11-03T00:00:52.543Z,95.40
2018-11-03T00:03:21.712Z,95.40
2018-11-03T00:05:51.426Z,95.60
2018-11-03T00:08:20.726Z,95.40
2018-11-03T00:10:55.558Z,95.50
2018-11-03T00:13:25.106Z,95.40
2018-11-03T00:15:55.650Z,95.30
2018-11-03T00:18:24.956Z,95.30
2018-11-03T00:20:54.146Z,95.10
2018-11-03T00:23:23.334Z,95.60
2018-11-03T00:25:52.477Z,96.00
2018-11-03T00:28:21.678Z,96.00
2018-11-03T00:30:50.819Z,97.10
2018-11-03T00:33:20.007Z,97.00
2018-11-03T00:35:49.198Z,96.80
2018-11-03T00:38:18.432Z,96.90
2018-11-03T00:40:47.660Z,96.60
2018-11-03T00:43:16.814Z,96.90
2018-11-03T00:45:45.972Z,97.30
2018-11-03T00:48:15.190Z,96.70
2018-11-03T00:50:44.344Z,96.60
2018-11-03T00:53:13.540Z,96.70
2018-11-03T00:55:42.775Z,96.30
2018-11-03T00:58:11.951Z,96.50
2018-11-03T01:00:41.105Z,97.00
2018-11-03T01:03:10.273Z,96.60
2018-11-03T01:05:39.423Z,96.20
2018-11-03T01:08:08.682Z,97.00
2018-11-03T01:10:37.897Z,97.40
2018-11-03T01:13:07.195Z,97.40
2018-11-03T01:15:36.351Z,97.00
2018-11-03T01:18:05.521Z,96.90
2018-11-03T01:20:34.766Z,96.90
2018-11-03T01:23:03.940Z,96.90
2018-11-03T01:25:33.263Z,97.80
2018-11-03T01:28:02.382Z,97.60
2018-11-03T01:30:31.622Z,97.80
2018-11-03T01:33:00.867Z,97.40
2018-11-03T01:35:30.070Z,97.60
2018-11-03T01:37:59.214Z,96.60
2018-11-03T01:40:28.407Z,96.80
2018-11-03T01:42:57.546Z,97.00
2018-11-03T01:45:26.734Z,97.20
2018-11-03T01:47:55.867Z,97.30
2018-11-03T01:50:25.124Z,97.80
2018-11-03T01:52:54.261Z,97.80
2018-11-03T01:55:23.418Z,97.90
2018-11-03T01:57:52.707Z,97.90
2018-11-03T02:00:21.895Z,98.20
2018-11-03T02:02:51.016Z,97.80
2018-11-03T02:05:20.182Z,97.90
2018-11-03T02:07:49.307Z,98.00
2018-11-03T02:10:18.475Z,98.10
2018-11-03T02:12:47.604Z,98.00
2018-11-03T02:15:16.787Z,98.40
2018-11-03T02:17:45.922Z,98.60
2018-11-03T02:20:15.090Z,99.00
2018-11-03T02:22:44.213Z,99.20
2018-11-03T02:25:13.450Z,98.90
2018-11-03T02:27:42.586Z,99.40
2018-11-03T02:30:12.467Z,99.10
2018-11-03T02:32:41.604Z,99.30
2018-11-03T02:35:11.770Z,99.20
2018-11-03T02:37:41.550Z,99.40
2018-11-03T02:40:12.436Z,99.70
2018-11-03T02:42:42.240Z,99.70
2018-11-03T02:45:11.859Z,99.40
2018-11-03T02:47:41.424Z,99.00
2018-11-03T02:50:12.685Z,98.90
2018-11-03T02:52:42.289Z,98.90
2018-11-03T02:55:11.515Z,96.90
2018-11-03T02:57:40.659Z,95.80
2018-11-03T03:00:10.847Z,95.60
2018-11-03T03:02:40.365Z,94.90
2018-11-03T03:05:10.565Z,95.10
2018-11-03T03:07:39.869Z,95.20
2018-11-03T03:10:10.753Z,95.20
2018-11-03T03:12:39.935Z,94.50
2018-11-03T03:15:10.966Z,94.60
2018-11-03T03:17:40.518Z,95.00
2018-11-03T03:20:10.958Z,95.00
2018-11-03T03:22:40.271Z,94.80
2018-11-03T03:25:10.425Z,94.90
2018-11-03T03:27:39.619Z,95.50
2018-11-03T03:30:09.445Z,95.00
2018-11-03T03:32:38.599Z,95.40
2018-11-03T03:35:08.002Z,95.80
2018-11-03T03:37:37.341Z,95.60
2018-11-03T03:40:07.515Z,95.50
2018-11-03T03:42:36.688Z,95.30
2018-11-03T03:45:06.787Z,95.20
2018-11-03T03:47:35.965Z,95.60
2018-11-03T03:50:05.708Z,95.60
2018-11-03T03:52:34.871Z,96.20
2018-11-03T03:55:04.122Z,96.60
2018-11-03T03:57:33.369Z,96.60
2018-11-03T04:00:02.543Z,96.80
2018-11-03T04:02:31.746Z,97.10
2018-11-03T04:05:00.973Z,97.10
2018-11-03T04:07:30.108Z,97.10
2018-11-03T04:09:59.300Z,96.90
2018-11-03T04:12:28.490Z,96.90
2018-11-03T04:14:57.759Z,96.80
2018-11-03T04:17:27.019Z,97.10
2018-11-03T04:19:56.262Z,97.20
2018-11-03T04:22:25.448Z,97.20
2018-11-03T04:24:54.601Z,97.00
2018-11-03T04:27:23.742Z,97.00
2018-11-03T04:29:52.913Z,97.80
2018-11-03T04:32:22.056Z,97.80
2018-11-03T04:34:51.253Z,97.50
2018-11-03T04:37:20.591Z,97.90
2018-11-03T04:39:49.849Z,98.20
2018-11-03T04:42:19.003Z,98.70
2018-11-03T04:44:48.195Z,98.80
2018-11-03T04:47:17.290Z,98.70
2018-11-03T04:49:46.464Z,98.40
2018-11-03T04:52:15.588Z,98.60
2018-11-03T04:54:46.917Z,98.70
2018-11-03T04:57:17.671Z,99.10
2018-11-03T04:59:46.930Z,98.90
2018-11-03T05:02:16.126Z,98.90
2018-11-03T05:04:45.347Z,98.40
2018-11-03T05:07:14.526Z,98.20
2018-11-03T05:09:43.839Z,98.40
2018-11-03T05:12:12.997Z,98.50
2018-11-03T05:14:42.214Z,98.60
2018-11-03T05:17:11.395Z,98.60
2018-11-03T05:19:40.522Z,98.30
2018-11-03T05:22:09.750Z,98.40
2018-11-03T05:24:38.876Z,98.40
2018-11-03T05:27:08.084Z,98.40
2018-11-03T05:29:37.393Z,98.40
2018-11-03T05:32:06.771Z,98.30
2018-11-03T05:34:35.990Z,98.30
2018-11-03T05:37:05.683Z,98.20
2018-11-03T05:39:34.927Z,98.10
2018-11-03T05:42:04.230Z,98.10
2018-11-03T05:44:33.466Z,98.20
2018-11-03T05:47:02.776Z,98.40
2018-11-03T05:49:31.979Z,98.30
2018-11-03T05:52:01.288Z,98.30
2018-11-03T05:54:30.540Z,98.50
2018-11-03T05:56:59.835Z,98.30
2018-11-03T05:59:29.017Z,98.10
2018-11-03T06:01:58.426Z,98.00
2018-11-03T06:04:27.571Z,97.80
2018-11-03T06:06:56.902Z,97.50
2018-11-03T06:09:26.059Z,97.40
2018-11-03T06:11:55.230Z,97.60
2018-11-03T06:14:24.399Z,97.60
2018-11-03T06:16:53.562Z,97.40
2018-11-03T06:19:22.686Z,97.40
2018-11-03T06:21:51.858Z,97.60
2018-11-03T06:24:21.010Z,97.40
2018-11-03T06:26:50.253Z,97.40
2018-11-03T06:29:20.021Z,97.20
2018-11-03T06:31:49.235Z,97.20
2018-11-03T06:34:18.351Z,97.20
2018-11-03T06:36:47.532Z,97.10
2018-11-03T06:39:16.754Z,97.50
2018-11-03T06:41:46.001Z,97.40
2018-11-03T06:44:15.180Z,97.60
2018-11-03T06:46:44.469Z,98.20
2018-11-03T06:49:18.732Z,98.60
2018-11-03T06:51:48.270Z,99.00
2018-11-03T06:54:18.516Z,99.20
2018-11-03T06:56:47.703Z,99.40
2018-11-03T06:59:17.578Z,99.50
2018-11-03T07:01:47.016Z,99.30
2018-11-03T07:04:16.211Z,99.50
2018-11-03T07:06:45.423Z,99.90
2018-11-03T07:09:14.907Z,99.90
2018-11-03T07:11:44.289Z,99.90
2018-11-03T07:14:13.378Z,99.90
2018-11-03T07:16:42.974Z,99.90
2018-11-03T07:19:12.323Z,99.90
2018-11-03T07:21:41.553Z,99.90
2018-11-03T07:24:10.938Z,99.90
2018-11-03T07:26:40.109Z,99.90
2018-11-03T07:29:09.548Z,99.90
2018-11-03T07:31:39.239Z,99.90
2018-11-03T07:34:08.526Z,99.90
2018-11-03T07:36:37.859Z,99.90
2018-11-03T07:39:09.241Z,99.90
2018-11-03T07:41:38.698Z,99.90
2018-11-03T07:44:08.657Z,99.90
2018-11-03T07:46:40.136Z,99.90
2018-11-03T07:49:09.946Z,99.90
2018-11-03T07:51:39.042Z,99.90
2018-11-03T07:54:08.901Z,99.90
2018-11-03T07:56:38.557Z,99.90
2018-11-03T07:59:07.873Z,99.90
2018-11-03T08:01:37.365Z,99.90
2018-11-03T08:04:07.166Z,99.90
2018-11-03T08:06:36.343Z,99.90
2018-11-03T08:09:08.808Z,99.90
2018-11-03T08:11:38.160Z,99.90
2018-11-03T08:14:07.510Z,99.90
2018-11-03T08:16:36.746Z,99.90
2018-11-03T08:19:06.114Z,99.90
2018-11-03T08:21:36.658Z,99.90
2018-11-03T08:24:06.586Z,99.90
2018-11-03T08:26:37.525Z,99.90
2018-11-03T08:29:07.515Z,99.90
2018-11-03T08:31:37.163Z,99.90
2018-11-03T08:34:06.303Z,99.90
2018-11-03T08:36:36.501Z,99.90
2018-11-03T08:39:08.859Z,99.90
2018-11-03T08:41:38.550Z,99.90
2018-11-03T08:44:10.016Z,99.90
2018-11-03T08:46:41.467Z,99.90
2018-11-03T08:49:10.709Z,99.90
2018-11-03T08:51:39.891Z,99.90
2018-11-03T08:54:12.050Z,99.90
2018-11-03T08:56:41.405Z,99.90
2018-11-03T08:59:10.529Z,99.90
2018-11-03T09:01:39.730Z,99.90
2018-11-03T09:04:08.850Z,99.90
2018-11-03T09:06:38.125Z,99.90
2018-11-03T09:09:07.632Z,99.90
2018-11-03T09:11:37.076Z,99.90
2018-11-03T09:14:06.357Z,99.80
2018-11-03T09:16:36.732Z,99.50
2018-11-03T09:19:06.090Z,99.00
2018-11-03T09:21:35.293Z,99.10
2018-11-03T09:24:04.454Z,98.40
2018-11-03T09:26:33.729Z,98.60
2018-11-03T09:29:02.930Z,98.70
2018-11-03T09:31:32.095Z,98.50
2018-11-03T09:34:01.230Z,98.00
2018-11-03T09:36:30.367Z,97.50
2018-11-03T09:38:59.669Z,97.80
2018-11-03T09:41:30.166Z,96.50
2018-11-03T09:43:59.414Z,96.10
2018-11-03T09:46:28.642Z,95.50
2018-11-03T09:48:59.076Z,95.30
2018-11-03T09:51:28.844Z,95.10
2018-11-03T09:53:58.254Z,95.40
2018-11-03T09:56:27.497Z,95.00
2018-11-03T09:58:57.130Z,94.50
2018-11-03T10:01:26.791Z,94.40
2018-11-03T10:03:56.438Z,94.40
2018-11-03T10:06:25.881Z,94.10
2018-11-03T10:08:55.061Z,93.70
2018-11-03T10:11:24.499Z,93.70
2018-11-03T10:13:57.487Z,93.70
2018-11-03T10:16:26.728Z,94.00
2018-11-03T10:18:56.935Z,93.20
2018-11-03T10:21:26.221Z,93.40
2018-11-03T10:23:58.543Z,93.70
2018-11-03T10:26:29.206Z,93.10
2018-11-03T10:28:59.014Z,93.00
2018-11-03T10:31:29.638Z,92.90
2018-11-03T10:33:59.842Z,93.00
2018-11-03T10:36:29.763Z,93.00
2018-11-03T10:38:59.847Z,92.70
2018-11-03T10:41:30.065Z,92.40
2018-11-03T10:43:59.601Z,92.70
2018-11-03T10:46:29.240Z,92.40
2018-11-03T10:48:58.282Z,92.70
2018-11-03T10:51:27.518Z,93.00
2018-11-03T10:53:56.883Z,92.30
2018-11-03T10:56:26.081Z,92.60
2018-11-03T10:58:55.330Z,92.60
2018-11-03T11:01:29.703Z,92.50
2018-11-03T11:04:04.284Z,92.70
2018-11-03T11:06:38.700Z,92.20
2018-11-03T11:09:13.506Z,92.00
2018-11-03T11:11:47.931Z,92.00
2018-11-03T11:14:17.988Z,91.70
2018-11-03T11:16:47.276Z,92.10
2018-11-03T11:19:16.494Z,92.40
2018-11-03T11:21:46.200Z,91.70
2018-11-03T11:24:15.482Z,91.70
2018-11-03T11:26:44.589Z,91.30
2018-11-03T11:29:14.400Z,91.50
2018-11-03T11:31:43.639Z,91.40
2018-11-03T11:34:13.115Z,91.30
2018-11-03T11:36:42.900Z,91.10
2018-11-03T11:39:12.301Z,91.20
2018-11-03T11:41:41.798Z,91.50
2018-11-03T11:44:11.378Z,91.80
2018-11-03T11:46:41.202Z,91.80
2018-11-03T11:49:10.388Z,91.40
2018-11-03T11:51:39.585Z,91.30
2018-11-03T11:54:08.726Z,91.60
2018-11-03T11:56:37.851Z,91.30
2018-11-03T11:59:07.018Z,91.40
2018-11-03T12:01:36.235Z,91.10
2018-11-03T12:04:05.673Z,91.20
2018-11-03T12:06:34.852Z,91.30
2018-11-03T12:09:04.634Z,90.70
2018-11-03T12:11:33.773Z,90.90
2018-11-03T12:14:02.995Z,90.50
2018-11-03T12:16:32.255Z,90.70
2018-11-03T12:19:01.541Z,90.30
2018-11-03T12:21:30.854Z,90.20
2018-11-03T12:24:00.068Z,90.20
2018-11-03T12:26:29.211Z,90.70
2018-11-03T12:28:58.343Z,90.00
2018-11-03T12:31:27.486Z,89.10
2018-11-03T12:33:56.652Z,89.40
2018-11-03T12:36:25.962Z,89.00
2018-11-03T12:38:55.277Z,89.40
2018-11-03T12:41:24.494Z,88.70
2018-11-03T12:43:55.093Z,88.80
2018-11-03T12:46:25.796Z,88.80
2018-11-03T12:48:55.064Z,89.60
2018-11-03T12:51:24.158Z,88.90
2018-11-03T12:53:53.318Z,89.80
2018-11-03T12:56:22.475Z,89.10
2018-11-03T12:58:51.642Z,89.00
2018-11-03T13:01:20.824Z,89.00
2018-11-03T13:03:50.070Z,88.30
2018-11-03T13:06:19.339Z,88.90
2018-11-03T13:08:48.507Z,89.40
2018-11-03T13:11:17.646Z,89.50
2018-11-03T13:13:47.787Z,89.40
2018-11-03T13:16:21.601Z,89.50
2018-11-03T13:18:52.095Z,89.60
2018-11-03T13:21:21.285Z,90.30
2018-11-03T13:23:54.215Z,90.00
2018-11-03T13:26:24.494Z,89.20
2018-11-03T13:28:54.623Z,89.50
2018-11-03T13:31:24.853Z,89.70
2018-11-03T13:33:55.664Z,90.00
2018-11-03T13:36:25.720Z,89.10
2018-11-03T13:38:56.877Z,88.80
2018-11-03T13:41:30.214Z,89.10
2018-11-03T13:44:00.760Z,88.80
2018-11-03T13:46:31.584Z,90.00
2018-11-03T13:49:02.655Z,90.10
2018-11-03T13:51:34.448Z,89.70
2018-11-03T13:54:04.412Z,89.50
2018-11-03T13:56:33.543Z,89.50
2018-11-03T13:59:05.660Z,90.00
2018-11-03T14:01:36.011Z,90.50
2018-11-03T14:04:06.205Z,90.30
2018-11-03T14:06:35.498Z,90.00
2018-11-03T14:09:06.743Z,89.80
2018-11-03T14:11:36.765Z,89.70
2018-11-03T14:14:07.516Z,89.70
2018-11-03T14:16:37.728Z,90.10
2018-11-03T14:19:07.103Z,89.90
2018-11-03T14:21:37.178Z,88.00
2018-11-03T14:24:07.345Z,85.90
2018-11-03T14:26:37.362Z,84.80
2018-11-03T14:29:07.457Z,83.80
2018-11-03T14:31:37.730Z,83.30
2018-11-03T14:34:07.796Z,82.70
2018-11-03T14:36:37.135Z,83.20
2018-11-03T14:39:09.313Z,81.40
2018-11-03T14:41:38.515Z,81.90
2018-11-03T14:44:07.664Z,82.70
2018-11-03T14:46:36.817Z,82.90
2018-11-03T14:49:06.451Z,82.80
2018-11-03T14:51:35.672Z,82.80
2018-11-03T14:54:05.025Z,83.70
2018-11-03T14:56:34.295Z,84.30
2018-11-03T14:59:03.874Z,83.20
2018-11-03T15:01:33.935Z,82.80
2018-11-03T15:04:04.401Z,82.70
2018-11-03T15:06:34.534Z,83.80
2018-11-03T15:09:05.804Z,84.90
2018-11-03T15:11:36.460Z,85.60
2018-11-03T15:14:08.540Z,87.20
2018-11-03T15:16:39.065Z,88.90
2018-11-03T15:19:08.658Z,90.00
2018-11-03T15:21:37.874Z,90.30
2018-11-03T15:24:07.025Z,90.10
2018-11-03T15:26:36.213Z,90.40
2018-11-03T15:29:06.721Z,90.90
2018-11-03T15:31:35.971Z,90.90
2018-11-03T15:34:05.208Z,91.60
2018-11-03T15:36:34.367Z,91.90
2018-11-03T15:39:04.302Z,92.30
2018-11-03T15:41:33.621Z,92.60
2018-11-03T15:44:02.740Z,92.60
2018-11-03T15:46:31.908Z,92.90
2018-11-03T15:49:01.024Z,92.70
2018-11-03T15:51:30.198Z,92.90
2018-11-03T15:53:59.331Z,92.70
2018-11-03T15:56:28.517Z,92.70
2018-11-03T15:58:57.660Z,92.80
2018-11-03T16:01:26.899Z,92.80
2018-11-03T16:03:56.034Z,93.00
2018-11-03T16:06:25.252Z,93.20
2018-11-03T16:08:54.370Z,93.30
2018-11-03T16:11:23.552Z,93.40
2018-11-03T16:13:52.748Z,93.70
2018-11-03T16:16:21.915Z,93.80
2018-11-03T16:18:54.549Z,94.00
2018-11-03T16:21:23.811Z,94.20
2018-11-03T16:23:54.434Z,94.50
2018-11-03T16:26:24.457Z,94.60
2018-11-03T16:28:54.237Z,94.60
2018-11-03T16:31:23.479Z,94.70
2018-11-03T16:33:54.705Z,94.70
2018-11-03T16:36:23.965Z,94.90
2018-11-03T16:38:53.127Z,94.90
2018-11-03T16:41:22.299Z,95.00
2018-11-03T16:43:51.426Z,95.20
2018-11-03T16:46:20.916Z,95.30
2018-11-03T16:48:50.088Z,95.40
2018-11-03T16:51:19.255Z,95.40
2018-11-03T16:53:48.398Z,95.60
2018-11-03T16:56:19.305Z,95.60
2018-11-03T16:58:50.040Z,95.50
2018-11-03T17:01:20.511Z,95.80
2018-11-03T17:03:51.103Z,95.90
2018-11-03T17:06:20.664Z,96.00
2018-11-03T17:08:50.018Z,96.20
2018-11-03T17:11:20.669Z,96.20
2018-11-03T17:13:50.153Z,96.40
2018-11-03T17:16:19.364Z,96.40
2018-11-03T17:18:48.542Z,96.40
2018-11-03T17:21:17.979Z,96.70
2018-11-03T17:23:47.214Z,96.50
2018-11-03T17:26:16.432Z,96.70
2018-11-03T17:28:46.257Z,96.70
2018-11-03T17:31:15.527Z,96.80
2018-11-03T17:33:46.751Z,96.80
2018-11-03T17:36:16.136Z,97.10
2018-11-03T17:38:46.288Z,97.10
2018-11-03T17:41:16.822Z,97.20
2018-11-03T17:43:46.115Z,97.40
2018-11-03T17:46:15.428Z,97.50
2018-11-03T17:48:44.788Z,97.60
2018-11-03T17:51:13.986Z,97.80
2018-11-03T17:53:43.173Z,97.70
2018-11-03T17:56:12.407Z,97.50
2018-11-03T17:58:41.699Z,97.50
2018-11-03T18:01:10.940Z,97.60
2018-11-03T18:03:40.055Z,97.50
2018-11-03T18:06:09.728Z,97.70
2018-11-03T18:08:38.898Z,97.80
2018-11-03T18:11:08.138Z,98.60
2018-11-03T18:13:44.425Z,98.30
2018-11-03T18:16:13.695Z,98.60
2018-11-03T18:18:42.901Z,98.40
2018-11-03T18:21:12.078Z,98.70
2018-11-03T18:23:41.796Z,98.70
2018-11-03T18:26:15.019Z,98.60
2018-11-03T18:28:44.878Z,98.90
2018-11-03T18:31:14.116Z,99.00
2018-11-03T18:33:43.252Z,99.40
2018-11-03T18:36:12.517Z,99.50
2018-11-03T18:38:41.689Z,99.70
2018-11-03T18:41:11.902Z,99.50
2018-11-03T18:43:43.157Z,99.60
2018-11-03T18:46:12.488Z,99.70
2018-11-03T18:48:44.115Z,99.60
2018-11-03T18:51:13.308Z,99.80
2018-11-03T18:53:43.821Z,99.90
2018-11-03T18:56:13.094Z,99.60
2018-11-03T18:58:42.343Z,99.90
2018-11-03T19:01:11.708Z,99.90
2018-11-03T19:03:41.218Z,99.90
2018-11-03T19:06:10.382Z,99.90
2018-11-03T19:08:39.597Z,99.90
2018-11-03T19:11:09.601Z,99.90
2018-11-03T19:13:39.190Z,99.90
2018-11-03T19:16:08.377Z,99.90
2018-11-03T19:18:39.629Z,99.90
2018-11-03T19:21:10.334Z,99.90
2018-11-03T19:23:40.511Z,99.90
2018-11-03T19:26:09.612Z,99.90
2018-11-03T19:28:39.921Z,99.90
2018-11-03T19:31:09.154Z,99.90
2018-11-03T19:33:39.052Z,99.90
2018-11-03T19:36:08.349Z,99.90
2018-11-03T19:38:37.533Z,99.90
2018-11-03T19:41:06.894Z,99.90
2018-11-03T19:43:36.667Z,99.90
2018-11-03T19:46:05.960Z,99.90
2018-11-03T19:48:35.238Z,99.90
2018-11-03T19:51:05.310Z,99.90
2018-11-03T19:53:35.716Z,99.90
2018-11-03T19:56:05.734Z,99.90
2018-11-03T19:58:34.913Z,99.90
2018-11-03T20:01:04.380Z,99.90
2018-11-03T20:03:33.596Z,99.90
2018-11-03T20:06:02.713Z,99.90
2018-11-03T20:08:32.103Z,99.90
2018-11-03T20:11:01.294Z,99.90
2018-11-03T20:13:30.900Z,99.90
2018-11-03T20:16:00.069Z,99.90
2018-11-03T20:18:29.267Z,99.90
2018-11-03T20:20:58.438Z,99.90
2018-11-03T20:23:27.670Z,99.90
2018-11-03T20:25:56.943Z,99.90
2018-11-03T20:28:26.212Z,99.90
2018-11-03T20:30:55.377Z,99.90
2018-11-03T20:33:24.526Z,99.90
2018-11-03T20:35:53.687Z,99.90
2018-11-03T20:38:22.895Z,99.90
2018-11-03T20:40:52.109Z,99.90
2018-11-03T20:43:21.383Z,99.90
2018-11-03T20:45:50.596Z,99.90
2018-11-03T20:48:19.770Z,99.90
2018-11-03T20:50:53.155Z,99.90
2018-11-03T20:53:22.355Z,99.90
2018-11-03T20:55:51.877Z,99.90
2018-11-03T20:58:21.288Z,99.90
2018-11-03T21:00:50.499Z,99.90
2018-11-03T21:03:19.699Z,99.90
2018-11-03T21:05:48.924Z,99.90
2018-11-03T21:08:18.270Z,99.90
2018-11-03T21:10:47.416Z,99.90
2018-11-03T21:13:16.801Z,99.90
2018-11-03T21:15:46.114Z,99.90
2018-11-03T21:18:16.274Z,99.90
2018-11-03T21:20:45.638Z,99.90
2018-11-03T21:23:17.184Z,99.90
2018-11-03T21:26:23.984Z,99.90
2018-11-03T21:31:42.603Z,99.90
2018-11-03T21:34:18.667Z,99.90
2018-11-03T21:36:49.567Z,99.90
2018-11-03T21:40:11.511Z,99.90
2018-11-03T21:42:58.871Z,99.90
2018-11-03T21:45:29.816Z,99.90
2018-11-03T21:47:59.309Z,99.90
2018-11-03T21:50:29.163Z,99.90
2018-11-03T21:52:58.435Z,99.90
2018-11-03T21:55:28.098Z,99.90
2018-11-03T22:42:14.643Z,99.90
2018-11-03T22:44:43.840Z,99.90
2018-11-03T22:47:14.496Z,99.90
2018-11-03T22:49:44.541Z,99.90
2018-11-03T22:52:14.118Z,99.90
2018-11-03T22:54:44.692Z,99.90
2018-11-03T22:57:14.016Z,99.90
2018-11-03T22:59:43.503Z,99.90
2018-11-03T23:02:12.691Z,99.90
2018-11-03T23:04:42.260Z,99.90
2018-11-03T23:07:11.778Z,99.90
2018-11-03T23:09:41.467Z,99.90
2018-11-03T23:12:11.206Z,99.90
2018-11-03T23:14:40.892Z,99.90
2018-11-03T23:17:10.298Z,99.90
2018-11-03T23:19:41.047Z,99.90
2018-11-03T23:22:10.225Z,99.90
2018-11-03T23:24:39.423Z,99.90
2018-11-03T23:27:08.632Z,99.90
2018-11-03T23:29:38.563Z,99.90
2018-11-03T23:32:08.002Z,99.90
2018-11-03T23:34:37.214Z,99.90
2018-11-03T23:37:06.734Z,99.90
2018-11-03T23:39:36.630Z,99.90
2018-11-03T23:42:06.772Z,99.90
2018-11-03T23:44:38.330Z,99.90
2018-11-03T23:47:08.704Z,99.90
2018-11-03T23:49:37.995Z,99.90
2018-11-03T23:52:08.010Z,99.90
2018-11-03T23:54:39.052Z,99.90
2018-11-03T23:57:09.759Z,99.90
2018-11-03T23:59:40.873Z,99.90
